Latest Coastal Weather Observations for Devonport Airport

IDT60701

Issued at 9:41 pm EST Tuesday 21 April 2015 (issued every 10 minutes, with the page automatically refreshed every 10 minutes)

About coastal observations | Map of coastal stations | Coastal observations for TAS | Marine services | Other Formats
Station Details ID: 091126 Name: DEVONPORT AIRPORT Lat: -41.17 Lon: 146.43 Height: 8.0 m
Data from the previous 72 hours. | See also: Recent months at Devonport Airport
Date/Time
EST
Temp

°C
Wind Pressure Rain
since 9am
mm
Weather Cloud Vis
km
Sea
Height
m
Swell
Dir
 
Speed
knots
Gust
knots
hPa Trend Height
m
Period
s
Dir
21/09:30pm 9.8 S 7 8 1031.7 - 0.0 - - 10 - - - -
21/09:00pm 10.1 SSE 5 6 1031.9 - 0.0 - - 10 - - - -
21/08:30pm 11.3 SSE 6 7 1032.1 - 0.0 - Partly cloudy 10 - - - -
21/08:00pm 12.6 S 5 5 1032.2 - 0.0 - Cloudy 10 - - - -
21/07:30pm 13.0 SSE 4 5 1032.8 - 0.0 - Cloudy 10 - - - -
21/07:00pm 13.1 S 3 4 1032.7 - 0.0 - Cloudy 10 - - - -
21/06:30pm 14.3 NW 5 6 1032.6 - 0.0 - Cloudy 10 - - - -
21/06:00pm 14.0 WNW 5 6 1032.3 - 0.0 - Cloudy 10 - - - -
21/05:30pm 13.7 NW 5 6 1032.3 - 0.0 - Partly cloudy 10 - - - -
21/05:00pm 14.1 NW 6 7 1032.0 - 0.0 - Partly cloudy 10 - - - -
21/04:30pm 14.3 WNW 7 9 1031.9 - 0.0 - - 10 - - - -
21/04:00pm 15.1 NW 8 10 1031.9 - 0.0 - - 10 - - - -
21/03:30pm 15.3 NNW 9 11 1031.8 - 0.0 - - 10 - - - -
21/03:00pm 15.4 NW 9 11 1031.7 - 0.0 - - 10 - - - -
21/02:30pm 15.3 NW 9 11 1031.4 - 0.0 - - 10 - - - -
21/02:00pm 15.3 NW 9 11 1031.5 - 0.0 - - 10 - - - -
21/01:30pm 15.1 NW 8 9 1031.8 - 0.0 - - 10 - - - -
21/01:00pm 15.6 NW 8 10 1032.1 - 0.0 - Partly cloudy 10 - - - -
21/12:30pm 15.2 NNW 9 11 1032.5 - 0.0 - Cloudy 10 - - - -
21/12:00pm 15.7 NNW 6 9 1032.8 - 0.0 - Mostly cloudy 10 - - - -
21/11:30am 15.1 NW 4 6 1033.4 - 0.0 - Cloudy 10 - - - -
21/11:00am 14.9 S 3 5 1033.7 - 0.0 - Partly cloudy 10 - - - -
21/10:30am 13.9 SSE 4 6 1034.2 - 0.0 - - 10 - - - -
21/10:00am 12.7 S 7 10 1034.2 - 0.0 - Partly cloudy 10 - - - -
21/09:30am 11.7 S 9 11 1034.4 - 0.0 - Cloudy 10 - - - -
21/09:00am 11.1 SSW 6 8 1034.6 - 0.0 - Partly cloudy 40 - - - -
21/08:30am 9.6 S 7 8 1034.8 - 0.0 - - 10 - - - -
21/08:00am 7.6 S 6 7 1034.8 - 0.0 - - 10 - - - -
21/07:30am 5.7 S 8 10 1034.7 - 0.0 - - 10 - - - -
21/07:00am 4.7 S 8 10 1034.5 - 0.0 - - 10 - - - -
21/06:30am 4.4 SSW 8 10 1034.5 - 0.0 - - 10 - - - -
21/06:00am 5.2 S 8 11 1034.5 - 0.0 - - 10 - - - -
21/05:30am 4.0 SW 3 5 1034.6 - 0.0 - - 10 - - - -
21/05:00am 5.2 S 5 6 1034.5 - 0.0 - - 10 - - - -
21/04:30am 5.8 S 5 6 1034.6 - 0.0 - - 10 - - - -
21/04:00am 4.8 SSW 4 7 1034.5 - 0.0 - - 10 - - - -
21/03:30am 5.0 SSW 5 8 1034.4 - 0.0 - - 10 - - - -
21/03:00am 5.4 SSW 5 8 1034.5 - 0.0 - - 10 - - - -
21/02:30am 6.3 SSW 7 9 1034.6 - 0.0 - Partly cloudy 10 - - - -
21/02:00am 7.4 S 8 10 1034.5 - 0.0 - Cloudy 10 - - - -
21/01:30am 6.7 S 9 12 1034.6 - 0.0 - Partly cloudy 10 - - - -
21/01:00am 6.3 SSE 8 11 1034.6 - 0.0 - - 10 - - - -
21/12:30am 6.5 SSE 9 10 1034.6 - 0.0 - - 10 - - - -
21/12:00am 6.4 SSW 7 8 1034.7 - 0.0 - - 49 - - - -
 
Date/Time
EST
Temp

°C
Wind Pressure Rain
since 9am
mm
Weather Cloud Vis
km
Sea
Height
m
Swell
Dir
 
Speed
knots
Gust
knots
hPa Trend Height
m
Period
s
Dir
20/11:30pm 6.4 S 4 5 1034.9 - 0.0 - - 10 - - - -
20/11:00pm 8.0 SSW 5 7 1035.1 - 0.0 - - 10 - - - -
20/10:30pm 6.7 SSE 4 5 1035.3 - 0.0 - - 10 - - - -
20/10:00pm 7.8 SSE 7 9 1035.5 - 0.0 - - 10 - - - -
20/09:30pm 7.5 SSE 7 9 1035.4 - 0.0 - - 10 - - - -
20/09:00pm 7.7 S 7 9 1035.3 - 0.0 - Mostly clear 10 - - - -
20/08:30pm 7.6 SSE 8 9 1035.3 - 0.0 - - 10 - - - -
20/08:00pm 8.1 S 8 9 1035.3 - 0.0 - - 10 - - - -
20/07:30pm 8.2 SSE 7 8 1035.1 - 0.0 - - 10 - - - -
20/07:00pm 8.3 SE 6 6 1034.9 - 0.0 - - 10 - - - -
20/06:30pm 8.9 SE 5 6 1034.8 - 0.0 - - 10 - - - -
20/06:00pm 9.5 E 5 6 1034.6 - 0.0 - - 10 - - - -
20/05:30pm 12.1 NNE 6 7 1034.4 - 0.0 - - 10 - - - -
20/05:00pm 12.8 N 6 8 1034.3 - 0.0 - - 10 - - - -
20/04:30pm 13.2 N 7 9 1034.4 - 0.0 - - 10 - - - -
20/04:00pm 13.4 NNW 7 9 1034.5 - 0.0 - - 10 - - - -
20/03:30pm 13.4 NNW 7 9 1034.6 - 0.0 - - 10 - - - -
20/03:00pm 13.2 NNW 8 9 1034.9 - 0.0 - - 10 - - - -
20/02:30pm 13.2 NNW 8 11 1035.1 - 0.0 - - 10 - - - -
20/02:00pm 13.0 N 7 9 1035.2 - 0.0 - - 10 - - - -
20/01:30pm 12.8 NNW 9 11 1035.6 - 0.0 - - 10 - - - -
20/01:00pm 12.8 NNW 9 12 1035.8 - 0.0 - - 10 - - - -
20/12:30pm 12.9 N 8 10 1036.3 - 0.0 - - 10 - - - -
20/12:00pm 12.8 N 7 9 1036.7 - 0.0 - - 10 - - - -
20/11:30am 12.7 NNW 7 9 1037.1 - 0.0 - - 10 - - - -
20/11:00am 12.2 NNE 5 8 1037.3 - 0.0 - - 10 - - - -
20/10:30am 11.9 S 3 5 1037.6 - 0.0 - - 10 - - - -
20/10:00am 10.2 S 5 8 1037.7 - 0.0 - - 10 - - - -
20/09:30am 8.7 SW 6 7 1037.9 - 0.0 - - 10 - - - -
20/09:00am 7.8 S 5 6 1037.8 - 0.0 - - 10 - - - -
20/08:30am 5.3 S 7 8 1037.6 - 0.0 - - 10 - - - -
20/08:00am 3.7 S 7 9 1037.5 - 0.0 - - 10 - - - -
20/07:30am 2.1 SSW 6 8 1037.3 - 0.0 - - 10 - - - -
20/07:00am 1.0 S 8 10 1037.1 - 0.0 - - 10 - - - -
20/06:30am 1.8 S 8 11 1036.8 - 0.0 - - 10 - - - -
20/06:00am 1.7 SSE 9 11 1036.7 - 0.0 - - 10 - - - -
20/05:30am 2.0 S 6 8 1036.6 - 0.0 - - 10 - - - -
20/05:00am 2.1 S 6 8 1036.4 - 0.0 - - 10 - - - -
20/04:30am 1.8 S 6 8 1036.3 - 0.0 - - 10 - - - -
20/04:00am 1.9 S 5 7 1036.0 - 0.0 - - 10 - - - -
20/03:30am 1.5 S 6 8 1035.8 - 0.0 - - 10 - - - -
20/03:00am 1.4 S 6 7 1035.8 - 0.0 - - 10 - - - -
20/02:30am 1.7 S 5 7 1036.0 - 0.0 - - 10 - - - -
20/02:00am 1.8 S 6 7 1036.0 - 0.0 - - 10 - - - -
20/01:30am 2.7 SW 5 6 1035.9 - 0.0 - - 10 - - - -
20/01:00am 3.0 SE 3 5 1035.7 - 0.0 - - 10 - - - -
20/12:30am 3.9 SSW 4 6 1035.6 - 0.0 - - 10 - - - -
20/12:00am 4.2 SSW 4 6 1035.6 - 0.0 - - 10 - - - -
 
Date/Time
EST
Temp

°C
Wind Pressure Rain
since 9am
mm
Weather Cloud Vis
km
Sea
Height
m
Swell
Dir
 
Speed
knots
Gust
knots
hPa Trend Height
m
Period
s
Dir
19/11:30pm 4.2 SSW 6 8 1035.4 - 0.0 - - 10 - - - -
19/11:00pm 3.8 SSE 1 5 1035.2 - 0.0 - - 10 - - - -
19/10:30pm 4.4 S 7 9 1035.1 - 0.0 - - 10 - - - -
19/10:00pm 5.6 SSE 8 10 1035.0 - 0.0 - - 10 - - - -
19/09:30pm 4.4 S 5 7 1034.8 - 0.0 - - 10 - - - -
19/09:00pm 6.2 ENE 3 4 1034.2 - 0.0 - - 10 - - - -
19/08:30pm 6.4 SSW 6 7 1033.6 - 0.0 - - 10 - - - -
19/08:00pm 6.1 SSW 5 7 1033.2 - 0.0 - - 10 - - - -
19/07:30pm 7.7 SSW 6 9 1032.6 - 0.0 - - 10 - - - -
19/07:00pm 6.5 SSW 2 6 1032.3 - 0.0 - - 10 - - - -
19/06:30pm 9.4 SSW 6 9 1031.6 - 0.0 - - 10 - - - -
19/06:00pm 10.4 SSW 7 9 1031.0 - 0.0 - - 10 - - - -
19/05:30pm 10.7 SW 7 11 1030.4 - 0.0 - - 10 - - - -
19/05:00pm 12.0 SW 12 16 1029.7 - 0.0 - - 10 - - - -
19/04:30pm 13.0 SW 12 18 1029.2 - 0.0 - - 10 - - - -
19/04:00pm 13.8 SSW 11 17 1028.8 - 0.0 - - 10 - - - -
19/03:30pm 14.3 SSW 11 17 1028.4 - 0.0 - - 10 - - - -
19/03:00pm 14.7 SSW 9 14 1028.1 - 0.0 - Mostly clear 10 - - - -
19/02:30pm 14.1 SSW 11 17 1027.6 - 0.0 - Partly cloudy 10 - - - -
19/02:00pm 13.9 SSW 13 21 1027.2 - 0.0 - Partly cloudy 10 - - - -
19/01:30pm 13.9 S 11 17 1027.1 - 0.0 - - 10 - - - -
19/01:00pm 13.6 SSW 13 18 1026.6 - 0.0 - Partly cloudy 10 - - - -
19/12:30pm 14.3 S 12 18 1026.3 - 0.0 - Partly cloudy 10 - - - -
19/12:00pm 14.0 SSW 10 14 1026.2 - 0.0 - - 10 - - - -
19/11:30am 13.0 SSW 11 16 1026.0 - 0.0 - - 10 - - - -
19/11:00am 12.9 S 10 16 1025.8 - 0.0 - - 10 - - - -
19/10:30am 12.4 SSW 10 15 1025.3 - 0.0 - - 10 - - - -
19/10:00am 11.9 S 12 18 1024.9 - 0.0 - - 10 - - - -
19/09:30am 11.7 S 12 15 1024.5 - 0.0 - - 10 - - - -
19/09:00am 11.3 SSW 11 16 1023.9 - 0.4 - - 10 - - - -
19/08:30am 10.4 SW 8 10 1023.4 - 0.4 - - 10 - - - -
19/08:00am 9.0 WSW 8 10 1022.7 - 0.4 - - 10 - - - -
19/07:30am 7.7 SW 7 10 1021.8 - 0.4 - - 10 - - - -
19/07:00am 7.9 SW 7 10 1020.8 - 0.4 - - 10 - - - -
19/06:30am 7.9 SW 7 9 1019.7 - 0.4 - - 10 - - - -
19/06:00am 8.5 SSW 9 14 1018.9 - 0.4 - - 10 - - - -
19/05:30am 7.2 SW 6 9 1018.3 - 0.4 - - 10 - - - -
19/05:00am 6.0 SSE 5 7 1017.3 - 0.4 - - 10 - - - -
19/04:30am 4.6 W 9 10 1016.3 - 0.4 - - 10 - - - -
19/04:00am 7.4 WSW 6 9 1015.7 - 0.4 - - 10 - - - -
19/03:30am 7.2 SW 2 5 1015.0 - 0.4 - - 10 - - - -
19/03:00am 8.0 WSW 5 6 1014.5 - 0.4 - - 10 - - - -
19/02:30am 6.5 W 9 11 1014.1 - 0.4 - - 10 - - - -
19/02:00am 6.8 W 10 11 1013.9 - 0.4 - - 10 - - - -
19/01:30am 8.2 WSW 6 8 1013.9 - 0.4 - - 10 - - - -
19/01:00am 7.8 W 8 9 1013.5 - 0.4 - - 10 - - - -
19/12:30am 8.3 W 7 9 1013.2 - 0.4 - - 10 - - - -
19/12:00am 8.2 W 8 9 1013.1 - 0.4 - - 10 - - - -
 
Date/Time
EST
Temp

°C
Wind Pressure Rain
since 9am
mm
Weather Cloud Vis
km
Sea
Height
m
Swell
Dir
 
Speed
knots
Gust
knots
hPa Trend Height
m
Period
s
Dir
18/11:30pm 8.6 WSW 7 8 1012.9 - 0.4 - - 10 - - - -
18/11:00pm 9.6 W 10 13 1012.5 - 0.4 - - 10 - - - -
18/10:30pm 10.0 W 9 13 1012.2 - 0.4 - - 10 - - - -
18/10:00pm 10.3 W 10 12 1011.9 - 0.4 - - 10 - - - -

Other Formats:

Comma delimited format used in spreadsheet applications
http://www.bom.gov.au/fwo/IDT60701/IDT60701.95960.axf

JavaScript Object Notation format (JSON) in row-major order
http://www.bom.gov.au/fwo/IDT60701/IDT60701.95960.json